Time;durP1;ratioP1;P1;durP2;ratioP2;P2;SDS_P1;SDS_P2;PMS_P1;PMS_P2;Temp;Humidity;BMP_temperature;BMP_pressure;BME280_temperature;BME280_humidity;BME280_pressure;Samples;Min_cycle;Max_cycle;Signal;HPM_P1;HPM_P2
2023/01/10 00:01:22;;;;;;;;;;;;;;;-144.99;100.00;52509.25;5022440;28;20040;-73
2023/01/10 00:03:48;;;;;;;;;;;;;;;-144.99;100.00;52521.47;5022399;28;20023;-72
2023/01/10 00:06:16;;;;;;;;;;;;;;;-144.99;100.00;52525.56;5029983;28;19940;-72
2023/01/10 00:08:43;;;;;;;;;;;;;;;-144.99;100.00;52545.94;5012204;28;20418;-72
2023/01/10 00:13:52;;;;;;;;;;;;;;;-144.99;100.00;52552.03;5021246;28;20087;-73
2023/01/10 00:16:19;;;;;;;;;;;;;;;-144.99;100.00;52558.16;5027496;28;20373;-73
2023/01/10 00:18:45;;;;;;;;;;;;;;;-144.99;100.00;52513.31;5031066;28;20058;-74
2023/01/10 00:23:44;;;;;;;;;;;;;;;-144.99;100.00;52509.25;5042604;28;19967;-70
2023/01/10 00:26:11;;;;;;;;;;;;;;;-144.99;100.00;52554.09;5051751;28;19933;-71
2023/01/10 00:28:38;;;;;;;;;;;;;;;-144.99;100.00;52541.84;5051961;28;19944;-71
2023/01/10 00:31:05;;;;;;;;;;;;;;;-144.99;100.00;52541.84;5051724;28;19952;-71
2023/01/10 00:33:32;;;;;;;;;;;;;;;-144.99;100.00;52529.63;5048449;28;20015;-70
2023/01/10 00:35:59;;;;;;;;;;;;;;;-144.99;100.00;52533.69;5045446;28;19936;-70
2023/01/10 00:38:25;;;;;;;;;;;;;;;-144.99;100.00;52560.19;5051849;28;20020;-71
2023/01/10 00:40:53;;;;;;;;;;;;;;;-144.99;100.00;52562.25;5051786;28;20331;-71
2023/01/10 00:46:04;;;;;;;;;;;;;;;-144.99;100.00;52539.81;5051939;28;20272;-71
2023/01/10 00:48:30;;;;;;;;;;;;;;;-144.99;100.00;52564.28;5066805;28;19931;-70
2023/01/10 00:50:57;;;;;;;;;;;;;;;-144.99;100.00;52543.91;5067864;28;19988;-71
2023/01/10 00:53:23;;;;;;;;;;;;;;;-144.99;100.00;52566.31;5048810;28;19939;-70
2023/01/10 00:55:50;;;;;;;;;;;;;;;-144.99;100.00;52578.53;5051302;28;20351;-69
2023/01/10 00:58:18;;;;;;;;;;;;;;;-144.99;100.00;52596.88;5051456;28;20373;-69
2023/01/10 01:00:48;;;;;;;;;;;;;;;-144.99;100.00;52574.47;5051113;28;19966;-68
2023/01/10 01:03:15;;;;;;;;;;;;;;;-144.99;100.00;52545.94;5048823;28;19939;-69
2023/01/10 01:05:42;;;;;;;;;;;;;;;-144.99;100.00;52584.66;5045305;28;19941;-69
2023/01/10 01:08:09;;;;;;;;;;;;;;;-144.99;100.00;52592.81;5039052;28;19979;-71
2023/01/10 01:10:35;;;;;;;;;;;;;;;-144.99;100.00;52521.47;5050514;28;19977;-66
2023/01/10 01:13:06;;;;;;;;;;;;;;;-144.99;100.00;52521.47;5048850;28;19974;-66
2023/01/10 01:15:34;;;;;;;;;;;;;;;-144.99;100.00;52582.63;5046900;28;20000;-66
2023/01/10 01:18:01;;;;;;;;;;;;;;;-144.99;100.00;52558.16;5047963;28;19955;-65
2023/01/10 01:20:27;;;;;;;;;;;;;;;-144.99;100.00;52525.56;5039384;28;20443;-65
2023/01/10 01:22:54;;;;;;;;;;;;;;;-144.99;100.00;52552.03;5049188;28;19993;-66
2023/01/10 01:25:20;;;;;;;;;;;;;;;-144.99;100.00;52513.31;5045522;28;19943;-67
2023/01/10 01:27:47;;;;;;;;;;;;;;;-144.99;100.00;52556.13;5052647;28;19987;-66
2023/01/10 01:30:14;;;;;;;;;;;;;;;-144.99;100.00;52533.69;5059086;28;20425;-66
2023/01/10 01:32:42;;;;;;;;;;;;;;;-144.99;100.00;52545.94;5052620;28;20018;-65
2023/01/10 01:35:10;;;;;;;;;;;;;;;-144.99;100.00;52554.09;5049628;28;20468;-66
2023/01/10 01:37:37;;;;;;;;;;;;;;;-144.99;100.00;52554.09;5050880;28;19998;-65
2023/01/10 01:40:03;;;;;;;;;;;;;;;-144.99;100.00;52529.63;5050241;28;19963;-66
2023/01/10 01:42:31;;;;;;;;;;;;;;;-144.99;100.00;52570.38;5050627;28;20351;-65
2023/01/10 01:45:16;;;;;;;;;;;;;;;-144.99;100.00;52558.16;5048463;28;19991;-65
2023/01/10 01:47:46;;;;;;;;;;;;;;;-144.99;100.00;52537.78;5049789;28;20473;-67
2023/01/10 01:50:15;;;;;;;;;;;;;;;-144.99;100.00;52566.31;5049754;28;19959;-64
2023/01/10 01:52:41;;;;;;;;;;;;;;;-144.99;100.00;52566.31;5044017;28;19936;-65
2023/01/10 01:55:09;;;;;;;;;;;;;;;-144.99;100.00;52564.28;5050157;28;20024;-65
2023/01/10 01:57:36;;;;;;;;;;;;;;;-144.99;100.00;52533.69;5051078;28;19935;-65
2023/01/10 02:00:05;;;;;;;;;;;;;;;-144.99;100.00;52566.31;5049827;28;20385;-65
2023/01/10 02:02:33;;;;;;;;;;;;;;;-144.99;100.00;52554.09;5047825;28;20008;-68
2023/01/10 02:05:03;;;;;;;;;;;;;;;-144.99;100.00;52509.25;5044656;28;19992;-68
2023/01/10 02:07:31;;;;;;;;;;;;;;;-144.99;100.00;52554.09;5054080;28;20473;-69
2023/01/10 02:10:01;;;;;;;;;;;;;;;-144.99;100.00;52537.78;5073772;28;19989;-69
2023/01/10 02:12:29;;;;;;;;;;;;;;;-144.99;100.00;52554.09;5050636;28;19941;-69
2023/01/10 02:14:56;;;;;;;;;;;;;;;-144.99;100.00;52527.59;5044887;28;19977;-69
2023/01/10 02:17:22;;;;;;;;;;;;;;;-144.99;100.00;52564.28;5050583;28;19944;-69
2023/01/10 02:19:51;;;;;;;;;;;;;;;-144.99;100.00;52554.09;5048373;28;19961;-69
2023/01/10 02:22:32;;;;;;;;;;;;;;;-144.99;100.00;52539.81;5048177;28;19992;-68
2023/01/10 02:25:12;;;;;;;;;;;;;;;-144.99;100.00;52558.16;5049545;28;19931;-67
2023/01/10 02:27:47;;;;;;;;;;;;;;;-144.99;100.00;52586.69;5046865;28;20349;-68
2023/01/10 02:30:37;;;;;;;;;;;;;;;-144.99;100.00;52570.38;5049813;28;20067;-67
2023/01/10 02:33:08;;;;;;;;;;;;;;;-144.99;100.00;52558.16;5032739;28;20510;-68
2023/01/10 02:35:45;;;;;;;;;;;;;;;-144.99;100.00;52537.78;5049467;28;19959;-67
2023/01/10 02:38:17;;;;;;;;;;;;;;;-144.99;100.00;52537.78;5030252;28;19955;-68
2023/01/10 02:40:47;;;;;;;;;;;;;;;-144.99;100.00;52541.84;5045338;28;19966;-70
2023/01/10 02:43:15;;;;;;;;;;;;;;;-144.99;100.00;52537.78;5048032;28;20314;-71
2023/01/10 02:45:46;;;;;;;;;;;;;;;-144.99;100.00;52525.56;5049917;28;19942;-71
2023/01/10 02:48:16;;;;;;;;;;;;;;;-144.99;100.00;52521.47;5060877;28;19946;-71
2023/01/10 02:50:46;;;;;;;;;;;;;;;-144.99;100.00;52488.84;5070344;28;19913;-70
2023/01/10 02:53:16;;;;;;;;;;;;;;;-144.99;100.00;52541.84;5047607;28;19986;-70
2023/01/10 02:55:48;;;;;;;;;;;;;;;-144.99;100.00;52554.09;5049406;28;20496;-70
2023/01/10 02:58:21;;;;;;;;;;;;;;;-144.99;100.00;52560.19;5050482;28;19963;-70
2023/01/10 03:00:53;;;;;;;;;;;;;;;-144.99;100.00;52560.19;5049655;28;20002;-70
2023/01/10 03:03:32;;;;;;;;;;;;;;;-144.99;100.00;52550.00;5047866;28;20142;-71
2023/01/10 03:06:06;;;;;;;;;;;;;;;-144.99;100.00;52556.13;5046192;28;19947;-67
2023/01/10 03:08:35;;;;;;;;;;;;;;;-144.99;100.00;52590.78;5046335;28;19960;-70
2023/01/10 03:11:03;;;;;;;;;;;;;;;-144.99;100.00;52517.41;5029236;28;19967;-67
2023/01/10 03:13:35;;;;;;;;;;;;;;;-144.99;100.00;52566.31;5041839;28;19944;-68
2023/01/10 03:16:03;;;;;;;;;;;;;;;-144.99;100.00;52541.84;5045673;28;20515;-68
2023/01/10 03:18:33;;;;;;;;;;;;;;;-144.99;100.00;52529.63;5046659;28;19949;-68
2023/01/10 03:21:03;;;;;;;;;;;;;;;-144.99;100.00;52570.38;5049135;28;19945;-68
2023/01/10 03:23:32;;;;;;;;;;;;;;;-144.99;100.00;52547.97;5045775;28;19944;-68
2023/01/10 03:25:58;;;;;;;;;;;;;;;-144.99;100.00;52590.78;5047631;28;19945;-68
2023/01/10 03:28:27;;;;;;;;;;;;;;;-144.99;100.00;52558.16;5045065;28;19943;-68
2023/01/10 03:30:57;;;;;;;;;;;;;;;-144.99;100.00;52541.84;5069103;28;19920;-68
2023/01/10 03:33:26;;;;;;;;;;;;;;;-144.99;100.00;52596.88;5047098;28;20333;-65
2023/01/10 03:35:57;;;;;;;;;;;;;;;-144.99;100.00;52541.84;5041320;28;20282;-67
2023/01/10 03:38:26;;;;;;;;;;;;;;;-144.99;100.00;52550.00;5049251;28;19994;-67
2023/01/10 03:40:56;;;;;;;;;;;;;;;-144.99;100.00;52558.16;5049177;28;20032;-67
2023/01/10 03:46:20;;;;;;;;;;;;;;;-144.99;100.00;52578.53;5042146;28;19968;-67
2023/01/10 03:48:48;;;;;;;;;;;;;;;-144.99;100.00;52554.09;5048740;28;19979;-67
2023/01/10 03:51:17;;;;;;;;;;;;;;;-144.99;100.00;52525.56;5048143;28;19964;-66
2023/01/10 03:53:44;;;;;;;;;;;;;;;-144.99;100.00;52558.16;5048466;28;19962;-67
2023/01/10 03:56:13;;;;;;;;;;;;;;;-144.99;100.00;52558.16;5048759;28;20362;-67
2023/01/10 03:58:39;;;;;;;;;;;;;;;-144.99;100.00;52550.00;5033640;28;20325;-62
2023/01/10 04:01:06;;;;;;;;;;;;;;;-144.99;100.00;52594.84;5029076;28;20009;-63
2023/01/10 04:03:32;;;;;;;;;;;;;;;-144.99;100.00;52550.00;5046096;28;19971;-64
2023/01/10 04:05:59;;;;;;;;;;;;;;;-144.99;100.00;52558.16;5029292;28;20422;-63
2023/01/10 04:08:27;;;;;;;;;;;;;;;-144.99;100.00;52545.94;5031447;28;19932;-64
2023/01/10 04:10:54;;;;;;;;;;;;;;;-144.99;100.00;52550.00;5057277;28;19974;-66
2023/01/10 04:13:20;;;;;;;;;;;;;;;-144.99;100.00;52545.94;5051993;28;20206;-67
2023/01/10 04:15:47;;;;;;;;;;;;;;;-144.99;100.00;52550.00;5038141;28;19941;-67
2023/01/10 04:18:14;;;;;;;;;;;;;;;-144.99;100.00;52562.25;5032106;28;19947;-67
2023/01/10 04:20:41;;;;;;;;;;;;;;;-144.99;100.00;52529.63;5048429;28;19970;-65
2023/01/10 04:23:07;;;;;;;;;;;;;;;-144.99;100.00;52509.25;5046468;28;19964;-66
2023/01/10 04:25:35;;;;;;;;;;;;;;;-144.99;100.00;52521.47;5048477;28;19991;-65
2023/01/10 04:28:02;;;;;;;;;;;;;;;-144.99;100.00;52541.84;5034872;28;19982;-66
2023/01/10 04:30:28;;;;;;;;;;;;;;;-144.99;100.00;52586.69;5039960;28;20005;-66
2023/01/10 04:32:55;;;;;;;;;;;;;;;-144.99;100.00;52537.78;5046385;28;20002;-66
2023/01/10 04:35:21;;;;;;;;;;;;;;;-144.99;100.00;52554.09;5048732;28;19943;-66
2023/01/10 04:37:48;;;;;;;;;;;;;;;-144.99;100.00;52545.94;5060734;28;19943;-66
2023/01/10 04:40:18;;;;;;;;;;;;;;;-144.99;100.00;52545.94;5056731;28;20426;-66
2023/01/10 04:42:46;;;;;;;;;;;;;;;-144.99;100.00;52578.53;5056297;28;20374;-66
2023/01/10 04:45:16;;;;;;;;;;;;;;;-144.99;100.00;52554.09;5049682;28;19939;-66
2023/01/10 04:47:43;;;;;;;;;;;;;;;-144.99;100.00;52566.31;5056335;28;19966;-66
2023/01/10 04:50:10;;;;;;;;;;;;;;;-144.99;100.00;52537.78;5059895;28;20300;-66
2023/01/10 04:52:36;;;;;;;;;;;;;;;-144.99;100.00;52574.47;5057983;28;19959;-66
2023/01/10 04:55:03;;;;;;;;;;;;;;;-144.99;100.00;52541.84;5063951;28;20002;-64
2023/01/10 04:57:29;;;;;;;;;;;;;;;-144.99;100.00;52550.00;5051593;28;19947;-65
2023/01/10 04:59:57;;;;;;;;;;;;;;;-144.99;100.00;52533.69;5061034;28;20007;-64
2023/01/10 05:02:24;;;;;;;;;;;;;;;-144.99;100.00;52507.19;5049233;28;19925;-64
2023/01/10 05:04:50;;;;;;;;;;;;;;;-144.99;100.00;52537.78;5057536;28;19934;-71
2023/01/10 05:07:17;;;;;;;;;;;;;;;-144.99;100.00;52586.69;5053157;28;19947;-70
2023/01/10 05:09:44;;;;;;;;;;;;;;;-144.99;100.00;52513.31;5056290;28;19955;-71
2023/01/10 05:12:10;;;;;;;;;;;;;;;-144.99;100.00;52545.94;5056750;28;19968;-69
2023/01/10 05:14:37;;;;;;;;;;;;;;;-144.99;100.00;52541.84;5055838;28;19991;-70
2023/01/10 05:17:05;;;;;;;;;;;;;;;-144.99;100.00;52537.78;5059768;28;20054;-68
2023/01/10 05:19:31;;;;;;;;;;;;;;;-144.99;100.00;52550.00;5050588;28;20010;-68
2023/01/10 05:21:58;;;;;;;;;;;;;;;-144.99;100.00;52545.94;5050623;28;20324;-68
2023/01/10 05:24:24;;;;;;;;;;;;;;;-144.99;100.00;52545.94;5050871;28;20020;-68
2023/01/10 05:26:51;;;;;;;;;;;;;;;-144.99;100.00;52545.94;5056017;28;20359;-71
2023/01/10 05:29:17;;;;;;;;;;;;;;;-144.99;100.00;52576.50;5042232;28;19933;-71
2023/01/10 05:31:44;;;;;;;;;;;;;;;-144.99;100.00;52580.59;5046061;28;19974;-71
2023/01/10 05:34:12;;;;;;;;;;;;;;;-144.99;100.00;52525.56;5051531;28;20456;-72
2023/01/10 05:36:39;;;;;;;;;;;;;;;-144.99;100.00;52570.38;5058582;28;19945;-71
2023/01/10 05:39:06;;;;;;;;;;;;;;;-144.99;100.00;52533.69;5051457;28;19965;-70
2023/01/10 05:41:32;;;;;;;;;;;;;;;-144.99;100.00;52529.63;5058364;28;20477;-71
2023/01/10 05:43:59;;;;;;;;;;;;;;;-144.99;100.00;52562.25;5048688;28;19943;-71
2023/01/10 05:46:25;;;;;;;;;;;;;;;-144.99;100.00;52552.03;5061463;28;19939;-72
2023/01/10 05:48:52;;;;;;;;;;;;;;;-144.99;100.00;52598.94;5047470;28;20357;-71
2023/01/10 05:51:20;;;;;;;;;;;;;;;-144.99;100.00;52545.94;5049242;28;19997;-72
2023/01/10 05:53:46;;;;;;;;;;;;;;;-144.99;100.00;52545.94;5053267;28;19925;-70
2023/01/10 05:56:13;;;;;;;;;;;;;;;-144.99;100.00;52550.00;5060553;28;19990;-71
2023/01/10 05:58:39;;;;;;;;;;;;;;;-144.99;100.00;52537.78;5045104;28;19961;-71
2023/01/10 06:01:06;;;;;;;;;;;;;;;-144.99;100.00;52562.25;5054728;28;20009;-72
2023/01/10 06:03:32;;;;;;;;;;;;;;;-144.99;100.00;52570.38;5051076;28;19939;-70
2023/01/10 06:05:59;;;;;;;;;;;;;;;-144.99;100.00;52547.97;5058431;28;20389;-70
2023/01/10 06:08:27;;;;;;;;;;;;;;;-144.99;100.00;52588.75;5051314;28;19995;-65
2023/01/10 06:10:53;;;;;;;;;;;;;;;-144.99;100.00;52554.09;5050615;28;19990;-68
2023/01/10 06:13:20;;;;;;;;;;;;;;;-144.99;100.00;52550.00;5071843;28;19960;-71
2023/01/10 06:15:47;;;;;;;;;;;;;;;-144.99;100.00;52586.69;5057285;28;19938;-71
2023/01/10 06:18:14;;;;;;;;;;;;;;;-144.99;100.00;52578.53;5057694;28;19941;-72
2023/01/10 06:20:40;;;;;;;;;;;;;;;-144.99;100.00;52558.16;5059457;28;19985;-71
2023/01/10 06:23:07;;;;;;;;;;;;;;;-144.99;100.00;52574.47;5046272;28;19960;-71
2023/01/10 06:25:39;;;;;;;;;;;;;;;-144.99;100.00;52564.28;5045579;28;19939;-72
2023/01/10 06:28:05;;;;;;;;;;;;;;;-144.99;100.00;52570.38;5043992;28;19954;-73
2023/01/10 06:30:34;;;;;;;;;;;;;;;-144.99;100.00;52568.34;4355871;28;10000765;-71
2023/01/10 06:33:00;;;;;;;;;;;;;;;-144.99;100.00;52588.75;5041090;28;19955;-72
2023/01/10 06:35:27;;;;;;;;;;;;;;;-144.99;100.00;52541.84;5043409;28;20373;-73
2023/01/10 06:37:54;;;;;;;;;;;;;;;-144.99;100.00;52598.94;5047485;28;19949;-73
2023/01/10 06:40:20;;;;;;;;;;;;;;;-144.99;100.00;52529.63;5047751;28;20060;-71
2023/01/10 06:42:49;;;;;;;;;;;;;;;-144.99;100.00;52521.47;5038657;28;20291;-73
2023/01/10 06:45:15;;;;;;;;;;;;;;;-144.99;100.00;52584.66;5043607;28;20371;-73
2023/01/10 06:47:42;;;;;;;;;;;;;;;-144.99;100.00;52564.28;5051790;28;19954;-73
2023/01/10 06:50:09;;;;;;;;;;;;;;;-144.99;100.00;52558.16;5060100;28;19929;-73
2023/01/10 06:52:36;;;;;;;;;;;;;;;-144.99;100.00;52586.69;5061649;28;19939;-74
2023/01/10 06:55:03;;;;;;;;;;;;;;;-144.99;100.00;52596.88;5053093;28;20049;-73
2023/01/10 06:57:32;;;;;;;;;;;;;;;-144.99;100.00;52558.16;5056094;28;20342;-73
2023/01/10 07:00:01;;;;;;;;;;;;;;;-144.99;100.00;52570.38;5046464;28;19970;-72
2023/01/10 07:02:27;;;;;;;;;;;;;;;-144.99;100.00;52529.63;5046559;28;19943;-73
2023/01/10 07:04:54;;;;;;;;;;;;;;;-144.99;100.00;52576.50;5042577;28;20035;-73
2023/01/10 07:07:20;;;;;;;;;;;;;;;-144.99;100.00;52558.16;5056761;28;20053;-72
2023/01/10 07:09:47;;;;;;;;;;;;;;;-144.99;100.00;52574.47;5047841;28;20034;-73
2023/01/10 07:12:13;;;;;;;;;;;;;;;-144.99;100.00;52570.38;5057295;28;19966;-75
2023/01/10 07:14:40;;;;;;;;;;;;;;;-144.99;100.00;52615.25;5051967;28;19969;-74
2023/01/10 07:17:08;;;;;;;;;;;;;;;-144.99;100.00;52550.00;5056786;28;19925;-73
2023/01/10 07:19:35;;;;;;;;;;;;;;;-144.99;100.00;52574.47;5058525;28;20655;-73
2023/01/10 07:22:01;;;;;;;;;;;;;;;-144.99;100.00;52552.03;5061770;28;20169;-73
2023/01/10 07:24:28;;;;;;;;;;;;;;;-144.99;100.00;52582.63;5059428;28;19955;-72
2023/01/10 07:26:55;;;;;;;;;;;;;;;-144.99;100.00;52545.94;5058126;28;20033;-73
2023/01/10 07:29:21;;;;;;;;;;;;;;;-144.99;100.00;52558.16;5053982;28;20041;-72
2023/01/10 07:31:48;;;;;;;;;;;;;;;-144.99;100.00;52568.34;5063632;28;19957;-74
2023/01/10 07:34:16;;;;;;;;;;;;;;;-144.99;100.00;52541.84;5066176;28;19972;-73
2023/01/10 07:36:42;;;;;;;;;;;;;;;-144.99;100.00;52537.78;5056265;28;19945;-73
2023/01/10 07:39:09;;;;;;;;;;;;;;;-144.99;100.00;52550.00;5071031;28;20043;-73
2023/01/10 07:41:36;;;;;;;;;;;;;;;-144.99;100.00;52578.53;5056680;28;19952;-73
2023/01/10 07:44:02;;;;;;;;;;;;;;;-144.99;100.00;52533.69;5052894;28;20177;-72
2023/01/10 07:46:29;;;;;;;;;;;;;;;-144.99;100.00;52554.09;5054610;28;19944;-73
2023/01/10 07:48:55;;;;;;;;;;;;;;;-144.99;100.00;52584.66;5054273;28;20014;-73
2023/01/10 07:51:23;;;;;;;;;;;;;;;-144.99;100.00;52529.63;5053425;28;19953;-75
2023/01/10 07:53:50;;;;;;;;;;;;;;;-144.99;100.00;52545.94;5052706;28;19962;-72
2023/01/10 07:56:16;;;;;;;;;;;;;;;-144.99;100.00;52533.69;5047421;28;19945;-73
2023/01/10 07:58:45;;;;;;;;;;;;;;;-144.99;100.00;52574.47;5055271;28;19961;-73
2023/01/10 08:01:12;;;;;;;;;;;;;;;-144.99;100.00;52529.63;5057555;28;19939;-74
2023/01/10 08:03:38;;;;;;;;;;;;;;;-144.99;100.00;52586.69;5062009;28;19939;-73
2023/01/10 08:06:06;;;;;;;;;;;;;;;-144.99;100.00;52529.63;5039006;23;20054;-70
2023/01/10 08:08:34;;;;;;;;;;;;;;;-144.99;100.00;52554.09;4684258;28;10000222;-73
2023/01/10 08:11:02;;;;;;;;;;;;;;;-144.99;100.00;52541.84;5026152;28;20354;-71
2023/01/10 08:13:28;;;;;;;;;;;;;;;-144.99;100.00;52594.84;5027549;28;20046;-71
2023/01/10 08:15:55;;;;;;;;;;;;;;;-144.99;100.00;52566.31;5022365;28;19940;-71
2023/01/10 08:18:22;;;;;;;;;;;;;;;-144.99;100.00;52580.59;5032721;28;19969;-73
2023/01/10 08:20:49;;;;;;;;;;;;;;;-144.99;100.00;52552.03;5028503;28;20044;-71
2023/01/10 08:23:15;;;;;;;;;;;;;;;-144.99;100.00;52531.66;5021408;28;20014;-74
2023/01/10 08:25:43;;;;;;;;;;;;;;;-144.99;100.00;52539.81;5033381;28;20083;-73
2023/01/10 08:28:10;;;;;;;;;;;;;;;-144.99;100.00;52558.16;5020481;28;20036;-74
2023/01/10 08:30:36;;;;;;;;;;;;;;;-144.99;100.00;52525.56;5038568;28;20501;-72
2023/01/10 08:33:04;;;;;;;;;;;;;;;-144.99;100.00;52541.84;5035116;28;19959;-70
2023/01/10 08:35:30;;;;;;;;;;;;;;;-144.99;100.00;52562.25;5028394;28;19980;-73
2023/01/10 08:37:58;;;;;;;;;;;;;;;-144.99;100.00;52578.53;5033342;28;19940;-72
2023/01/10 08:40:24;;;;;;;;;;;;;;;-144.99;100.00;52550.00;5039428;28;19987;-74
2023/01/10 08:42:57;;;;;;;;;;;;;;;-144.99;100.00;52574.47;5028599;28;19967;-72
2023/01/10 08:45:23;;;;;;;;;;;;;;;-144.99;100.00;52566.31;5023090;28;19944;-71
2023/01/10 08:47:50;;;;;;;;;;;;;;;-144.99;100.00;52574.47;5033598;28;19968;-71
2023/01/10 08:50:16;;;;;;;;;;;;;;;-144.99;100.00;52484.78;5022890;28;20608;-72
2023/01/10 08:52:43;;;;;;;;;;;;;;;-144.99;100.00;52521.47;5012522;28;19968;-72
2023/01/10 08:55:10;;;;;;;;;;;;;;;-144.99;100.00;52582.63;5017514;28;19994;-71
2023/01/10 08:57:36;;;;;;;;;;;;;;;-144.99;100.00;52554.09;5020057;28;20035;-72
2023/01/10 09:00:05;;;;;;;;;;;;;;;-144.99;100.00;52582.63;5041677;28;20421;-72
2023/01/10 09:02:32;;;;;;;;;;;;;;;-144.99;100.00;52525.56;5027746;28;19952;-73
2023/01/10 09:04:58;;;;;;;;;;;;;;;-144.99;100.00;52543.91;5027415;28;20448;-72
2023/01/10 09:07:24;;;;;;;;;;;;;;;-144.99;99.18;52499.06;5024326;28;19928;-73
2023/01/10 09:09:51;;;;;;;;;;;;;;;-144.99;97.92;52499.06;5020564;28;20090;-72
2023/01/10 09:15:02;;;;;;;;;;;;;;;-144.99;95.96;52554.09;5026442;28;20045;-72
2023/01/10 09:17:30;;;;;;;;;;;;;;;-144.99;94.38;52509.25;5013142;28;19937;-72
2023/01/10 09:19:56;;;;;;;;;;;;;;;-144.99;94.04;52533.69;5034360;28;19983;-72
2023/01/10 09:22:23;;;;;;;;;;;;;;;-144.99;94.37;52492.94;5036359;28;19978;-73
2023/01/10 09:24:49;;;;;;;;;;;;;;;-144.99;92.83;52492.94;5044578;28;19982;-72
2023/01/10 09:27:16;;;;;;;;;;;;;;;-144.99;91.86;52527.59;5031434;28;20036;-73
2023/01/10 09:29:42;;;;;;;;;;;;;;;-144.99;91.18;52494.97;5021073;28;20021;-72
2023/01/10 09:32:09;;;;;;;;;;;;;;;-144.99;90.37;52513.31;5027018;28;19959;-72
2023/01/10 09:34:36;;;;;;;;;;;;;;;-144.99;89.09;52545.94;5030566;28;20564;-72
2023/01/10 09:37:03;;;;;;;;;;;;;;;-144.99;89.91;52497.00;5026125;28;19987;-72
2023/01/10 09:39:31;;;;;;;;;;;;;;;-144.99;91.87;52545.94;5034878;28;20408;-73
2023/01/10 09:42:09;;;;;;;;;;;;;;;-144.99;92.50;52513.31;5023055;28;20033;-72
2023/01/10 09:44:40;;;;;;;;;;;;;;;-144.99;93.05;52568.34;5022600;28;19943;-72
2023/01/10 09:47:13;;;;;;;;;;;;;;;-144.99;93.25;52558.16;5022203;28;20341;-72
2023/01/10 09:49:46;;;;;;;;;;;;;;;-144.99;95.13;52562.25;5029752;28;20060;-72
2023/01/10 09:52:19;;;;;;;;;;;;;;;-144.99;96.79;52537.78;5018769;28;20100;-73
2023/01/10 09:54:47;;;;;;;;;;;;;;;-144.99;97.23;52545.94;5037790;28;20258;-72
2023/01/10 09:57:16;;;;;;;;;;;;;;;-144.99;97.51;52533.69;5039073;28;19995;-73
2023/01/10 09:59:44;;;;;;;;;;;;;;;-144.99;97.35;52566.31;5012642;28;20006;-72
2023/01/10 10:02:18;;;;;;;;;;;;;;;-144.99;98.67;52588.75;5021851;28;19999;-72
2023/01/10 10:04:52;;;;;;;;;;;;;;;-144.99;97.88;52501.09;5024309;28;19978;-72
2023/01/10 10:07:19;;;;;;;;;;;;;;;-144.99;97.29;52554.09;5037599;28;19925;-72
2023/01/10 10:09:45;;;;;;;;;;;;;;;-144.99;98.17;52523.50;5035123;28;20421;-72
2023/01/10 10:12:25;;;;;;;;;;;;;;;-144.99;97.31;52513.31;5025975;28;19951;-72
2023/01/10 10:14:59;;;;;;;;;;;;;;;-144.99;96.74;52541.84;5024978;28;20373;-73
2023/01/10 10:17:36;;;;;;;;;;;;;;;-144.99;97.12;52537.78;5025504;28;20062;-72
2023/01/10 10:20:16;;;;;;;;;;;;;;;-144.99;97.29;52509.25;5012660;28;20003;-72
2023/01/10 10:22:47;;;;;;;;;;;;;;;-144.99;97.83;52533.69;5031021;28;19967;-72
2023/01/10 10:25:19;;;;;;;;;;;;;;;-144.99;97.13;52539.81;5023549;28;19996;-72
2023/01/10 10:27:55;;;;;;;;;;;;;;;-144.99;97.04;52515.34;5027665;28;19969;-71
2023/01/10 10:30:28;;;;;;;;;;;;;;;-144.99;97.32;52531.66;5026165;28;20029;-72
2023/01/10 10:33:06;;;;;;;;;;;;;;;-144.99;97.86;52533.69;5028833;28;20002;-72
2023/01/10 10:35:37;;;;;;;;;;;;;;;-144.99;97.00;52586.69;5012327;28;19993;-72
2023/01/10 10:38:05;;;;;;;;;;;;;;;-144.99;96.72;52525.56;5021798;28;20343;-72
2023/01/10 10:40:36;;;;;;;;;;;;;;;-144.99;96.77;52488.84;5040209;28;20559;-72
2023/01/10 10:43:10;;;;;;;;;;;;;;;-144.99;96.31;52525.56;5025856;28;20015;-72
2023/01/10 10:45:41;;;;;;;;;;;;;;;-144.99;96.08;52539.81;5024887;28;20003;-72
2023/01/10 10:48:13;;;;;;;;;;;;;;;-144.99;97.02;52545.94;5027807;28;20006;-73
2023/01/10 10:50:47;;;;;;;;;;;;;;;-144.99;97.16;52521.47;5040389;28;19994;-72
2023/01/10 10:53:13;;;;;;;;;;;;;;;-144.99;96.74;52541.84;5019732;28;20223;-72
2023/01/10 10:55:40;;;;;;;;;;;;;;;-144.99;96.63;52541.84;5030517;28;20004;-72
2023/01/10 10:58:07;;;;;;;;;;;;;;;-144.99;96.78;52566.31;5024950;28;19946;-72
2023/01/10 11:00:34;;;;;;;;;;;;;;;-144.99;96.17;52529.63;5031430;28;20046;-72
2023/01/10 11:03:03;;;;;;;;;;;;;;;-144.99;96.86;52554.09;5034149;28;20016;-72
2023/01/10 11:05:33;;;;;;;;;;;;;;;-144.99;96.05;52576.50;5026002;28;20276;-72
2023/01/10 11:08:02;;;;;;;;;;;;;;;-144.99;95.77;52562.25;5026370;28;20544;-72
2023/01/10 11:10:34;;;;;;;;;;;;;;;-144.99;95.47;52529.63;5032746;28;19929;-73
2023/01/10 11:13:02;;;;;;;;;;;;;;;-144.99;95.83;52537.78;5022028;28;20448;-72
2023/01/10 11:15:35;;;;;;;;;;;;;;;-144.99;95.85;52562.25;5032187;28;20196;-72
2023/01/10 11:18:04;;;;;;;;;;;;;;;-144.99;95.53;52509.25;5026838;28;19980;-72
2023/01/10 11:20:31;;;;;;;;;;;;;;;-144.99;96.04;52570.38;5033308;28;19987;-72
2023/01/10 11:22:58;;;;;;;;;;;;;;;-144.99;97.02;52527.59;5031329;28;19988;-72
2023/01/10 11:25:25;;;;;;;;;;;;;;;-144.99;96.42;52517.41;5016520;28;19992;-72
2023/01/10 11:27:54;;;;;;;;;;;;;;;-144.99;96.64;52527.59;5022958;28;20388;-71
2023/01/10 11:30:22;;;;;;;;;;;;;;;-144.99;95.88;52541.84;5017598;28;20051;-74
2023/01/10 11:32:51;;;;;;;;;;;;;;;-144.99;95.20;52545.94;5023696;28;20365;-71
2023/01/10 11:35:20;;;;;;;;;;;;;;;-144.99;95.09;52554.09;5025457;28;19982;-73
2023/01/10 11:37:58;;;;;;;;;;;;;;;-144.99;94.51;52529.63;5028805;28;19961;-72
2023/01/10 11:40:26;;;;;;;;;;;;;;;-144.99;95.22;52562.25;5032853;28;20413;-74
2023/01/10 11:42:54;;;;;;;;;;;;;;;-144.99;95.39;52572.44;5039218;28;20423;-74
2023/01/10 11:45:23;;;;;;;;;;;;;;;-144.99;95.90;52570.38;5028413;28;20431;-72
2023/01/10 11:47:53;;;;;;;;;;;;;;;-144.99;96.20;52547.97;5017973;28;19974;-73
2023/01/10 11:50:20;;;;;;;;;;;;;;;-144.99;96.73;52537.78;5029644;28;19983;-72
2023/01/10 11:52:48;;;;;;;;;;;;;;;-144.99;97.04;52513.31;5033006;28;20003;-72
2023/01/10 11:55:18;;;;;;;;;;;;;;;-144.99;96.04;52533.69;5012541;28;19951;-72
2023/01/10 11:57:53;;;;;;;;;;;;;;;-144.99;96.29;52564.28;5020048;28;19976;-73
2023/01/10 12:00:21;;;;;;;;;;;;;;;-144.99;97.25;52533.69;5026008;28;20660;-71
2023/01/10 12:02:49;;;;;;;;;;;;;;;-144.99;97.11;52517.41;5037379;28;19960;-72
2023/01/10 12:05:22;;;;;;;;;;;;;;;-144.99;96.96;52537.78;5037415;28;20355;-71
2023/01/10 12:07:55;;;;;;;;;;;;;;;-144.99;96.89;52578.53;5028950;28;19958;-74
2023/01/10 12:10:22;;;;;;;;;;;;;;;-144.99;96.64;52545.94;5020605;28;20434;-72
2023/01/10 12:12:56;;;;;;;;;;;;;;;-144.99;96.57;52568.34;5033644;28;19976;-74
2023/01/10 12:15:23;;;;;;;;;;;;;;;-144.99;96.97;52541.84;5043837;28;19944;-72
2023/01/10 12:17:50;;;;;;;;;;;;;;;-144.99;96.49;52554.09;5031844;28;19948;-73
2023/01/10 12:20:17;;;;;;;;;;;;;;;-144.99;96.78;52505.16;5028728;28;20582;-74
2023/01/10 12:22:46;;;;;;;;;;;;;;;-144.99;96.12;52517.41;5037698;28;19956;-74
2023/01/10 12:25:18;;;;;;;;;;;;;;;-144.99;96.11;52541.84;5037245;28;20493;-72
2023/01/10 12:27:49;;;;;;;;;;;;;;;-144.99;95.76;52558.16;5027900;28;19947;-73
2023/01/10 12:30:20;;;;;;;;;;;;;;;-144.99;95.73;52554.09;5026755;28;20108;-74
2023/01/10 12:32:49;;;;;;;;;;;;;;;-144.99;95.01;52521.47;5035166;28;19955;-72
2023/01/10 12:35:20;;;;;;;;;;;;;;;-144.99;95.09;52529.63;5037531;28;20272;-73
2023/01/10 12:37:48;;;;;;;;;;;;;;;-144.99;94.79;52533.69;5028069;28;19947;-73
2023/01/10 12:40:19;;;;;;;;;;;;;;;-144.99;93.91;52554.09;5021583;28;20041;-73